createdAt,value
2018-06-20T00:01:54.070Z,2.85
2018-06-20T00:04:22.206Z,2.80
2018-06-20T00:06:50.340Z,2.73
2018-06-20T00:09:18.489Z,2.62
2018-06-20T00:11:46.646Z,3.00
2018-06-20T00:14:14.802Z,3.20
2018-06-20T00:16:42.933Z,3.00
2018-06-20T00:19:11.082Z,3.30
2018-06-20T00:21:39.218Z,2.92
2018-06-20T00:24:07.389Z,3.35
2018-06-20T00:26:35.538Z,2.90
2018-06-20T00:29:03.678Z,3.30
2018-06-20T00:31:31.814Z,3.03
2018-06-20T00:33:59.954Z,2.87
2018-06-20T00:36:28.082Z,2.77
2018-06-20T00:38:56.217Z,3.00
2018-06-20T00:41:24.354Z,2.87
2018-06-20T00:43:52.489Z,2.70
2018-06-20T00:46:20.393Z,3.27
2018-06-20T00:48:48.534Z,2.70
2018-06-20T00:51:16.682Z,3.17
2018-06-20T00:53:44.593Z,3.10
2018-06-20T00:56:19.314Z,2.93
2018-06-20T00:58:47.450Z,4.00
2018-06-20T01:01:15.683Z,2.80
2018-06-20T01:03:43.982Z,3.10
2018-06-20T01:06:12.222Z,2.60
2018-06-20T01:08:40.370Z,2.60
2018-06-20T01:11:08.542Z,3.00
2018-06-20T01:13:36.822Z,3.10
2018-06-20T01:16:05.038Z,2.93
2018-06-20T01:18:33.222Z,3.00
2018-06-20T01:21:01.434Z,2.90
2018-06-20T01:23:29.609Z,3.27
2018-06-20T01:25:57.770Z,3.20
2018-06-20T01:28:25.917Z,3.27
2018-06-20T01:30:54.087Z,3.33
2018-06-20T01:33:22.562Z,2.97
2018-06-20T01:35:50.721Z,3.27
2018-06-20T01:38:18.874Z,3.90
2018-06-20T01:40:47.094Z,3.40
2018-06-20T01:43:15.249Z,3.50
2018-06-20T01:45:43.409Z,3.10
2018-06-20T01:48:11.571Z,3.10
2018-06-20T01:50:39.733Z,3.37
2018-06-20T01:53:07.878Z,3.07
2018-06-20T01:55:36.088Z,3.20
2018-06-20T01:58:04.197Z,3.80
2018-06-20T02:00:32.370Z,3.40
2018-06-20T02:03:00.521Z,3.70
2018-06-20T02:05:28.694Z,2.90
2018-06-20T02:07:56.846Z,3.43
2018-06-20T02:10:25.009Z,3.13
2018-06-20T02:12:53.163Z,3.07
2018-06-20T02:15:21.334Z,3.30
2018-06-20T02:17:49.490Z,3.40
2018-06-20T02:20:17.649Z,3.50
2018-06-20T02:22:45.805Z,3.83
2018-06-20T02:25:13.969Z,3.50
2018-06-20T02:27:42.323Z,2.97
2018-06-20T02:30:10.493Z,3.13
2018-06-20T02:32:38.646Z,2.70
2018-06-20T02:35:07.337Z,3.87
2018-06-20T02:37:35.731Z,3.30
2018-06-20T02:40:03.903Z,3.30
2018-06-20T02:42:32.076Z,2.93
2018-06-20T02:45:00.246Z,3.10
2018-06-20T02:47:33.889Z,3.10
2018-06-20T02:50:02.054Z,3.10
2018-06-20T02:52:30.219Z,3.03
2018-06-20T02:54:58.895Z,3.30
2018-06-20T02:57:27.066Z,2.87
2018-06-20T02:59:55.230Z,3.37
2018-06-20T03:02:23.386Z,3.50
2018-06-20T03:04:51.563Z,3.90
2018-06-20T03:07:19.706Z,3.80
2018-06-20T03:09:47.871Z,4.00
2018-06-20T03:12:16.027Z,3.73
2018-06-20T03:14:44.246Z,3.33
2018-06-20T03:17:12.397Z,3.40
2018-06-20T03:19:40.549Z,3.03
2018-06-20T03:22:08.706Z,3.43
2018-06-20T03:24:36.871Z,3.60
2018-06-20T03:27:04.802Z,3.30
2018-06-20T03:29:32.966Z,3.20
2018-06-20T03:32:01.125Z,3.50
2018-06-20T03:34:29.288Z,3.83
2018-06-20T03:36:57.446Z,3.73
2018-06-20T03:39:25.601Z,3.80
2018-06-20T03:41:53.769Z,3.60
2018-06-20T03:44:21.934Z,4.00
2018-06-20T03:46:50.097Z,3.60
2018-06-20T03:49:18.249Z,4.13
2018-06-20T03:51:46.408Z,3.73
2018-06-20T03:54:14.566Z,3.67
2018-06-20T03:56:42.735Z,4.07
2018-06-20T03:59:10.653Z,3.90
2018-06-20T04:01:39.155Z,4.80
2018-06-20T04:04:07.336Z,4.50
2018-06-20T04:06:35.499Z,4.40
2018-06-20T04:09:05.897Z,4.67
2018-06-20T04:11:34.058Z,4.80
2018-06-20T04:14:02.210Z,4.50
2018-06-20T04:16:30.405Z,6.00
2018-06-20T04:18:58.562Z,4.20
2018-06-20T04:21:26.731Z,4.40
2018-06-20T04:23:54.887Z,4.23
2018-06-20T04:26:23.065Z,4.50
2018-06-20T04:28:51.226Z,4.33
2018-06-20T04:31:19.377Z,4.70
2018-06-20T04:33:47.671Z,4.47
2018-06-20T04:36:15.822Z,4.43
2018-06-20T04:38:43.989Z,4.40
2018-06-20T04:41:12.137Z,5.00
2018-06-20T04:43:40.317Z,4.07
2018-06-20T04:46:08.470Z,4.93
2018-06-20T04:48:36.643Z,4.20
2018-06-20T04:51:04.561Z,4.50
2018-06-20T04:53:32.730Z,4.70
2018-06-20T04:56:00.648Z,5.33
2018-06-20T04:58:28.826Z,5.63
2018-06-20T05:00:56.982Z,4.80
2018-06-20T05:03:25.144Z,4.60
2018-06-20T05:05:53.302Z,4.73
2018-06-20T05:08:21.474Z,4.83
2018-06-20T05:10:49.650Z,4.63
2018-06-20T05:13:17.788Z,4.63
2018-06-20T05:15:45.941Z,5.43
2018-06-20T05:18:14.100Z,4.37
2018-06-20T05:23:09.741Z,4.40
2018-06-20T05:25:37.894Z,4.80
2018-06-20T05:28:06.053Z,6.00
2018-06-20T05:30:34.210Z,5.50
2018-06-20T05:33:02.378Z,4.50
2018-06-20T05:55:10.378Z,6.07
2018-06-20T05:57:38.546Z,5.97
2018-06-20T06:00:06.756Z,6.42
2018-06-20T06:02:34.975Z,5.90
2018-06-20T06:05:03.143Z,6.00
2018-06-20T06:07:31.301Z,5.80
2018-06-20T06:10:00.635Z,6.08
2018-06-20T06:12:28.787Z,6.20
2018-06-20T06:14:56.977Z,5.75
2018-06-20T06:17:25.150Z,5.40
2018-06-20T06:19:53.314Z,6.50
2018-06-20T06:22:21.494Z,6.80
2018-06-20T06:24:49.673Z,6.33
2018-06-20T06:27:17.870Z,5.90
2018-06-20T06:29:46.029Z,7.47
2018-06-20T06:32:14.197Z,7.30
2018-06-20T06:34:42.365Z,6.90
2018-06-20T06:37:10.550Z,7.37
2018-06-20T06:39:38.721Z,6.75
2018-06-20T06:42:06.890Z,7.70
2018-06-20T06:44:35.150Z,7.35
2018-06-20T06:47:03.333Z,7.20
2018-06-20T06:49:31.514Z,6.90
2018-06-20T06:51:59.666Z,7.05
2018-06-20T06:54:28.457Z,7.37
2018-06-20T06:56:56.613Z,7.15
2018-06-20T06:59:24.789Z,6.70
2018-06-20T07:01:52.965Z,6.90
2018-06-20T07:04:21.129Z,5.90
2018-06-20T07:06:49.301Z,5.97
2018-06-20T07:09:18.422Z,5.40
2018-06-20T07:11:46.669Z,6.30
2018-06-20T07:14:14.837Z,6.55
2018-06-20T07:16:43.049Z,5.50
2018-06-20T07:19:11.231Z,5.75
2018-06-20T07:21:39.406Z,5.53
2018-06-20T07:24:07.562Z,6.08
2018-06-20T07:26:35.734Z,5.85
2018-06-20T07:29:03.928Z,4.70
2018-06-20T07:31:31.847Z,4.10
2018-06-20T07:34:00.107Z,5.92
2018-06-20T07:36:28.223Z,6.00
2018-06-20T07:38:56.402Z,5.12
2018-06-20T07:41:24.573Z,4.33
2018-06-20T07:43:52.729Z,4.12
2018-06-20T07:46:20.934Z,4.00
2018-06-20T07:48:49.125Z,3.77
2018-06-20T07:51:17.482Z,4.57
2018-06-20T07:53:45.665Z,3.90
2018-06-20T07:56:13.849Z,4.00
2018-06-20T07:58:47.449Z,3.67
2018-06-20T08:01:32.510Z,3.55
2018-06-20T08:05:03.786Z,3.80
2018-06-20T08:07:37.562Z,3.90
2018-06-20T08:10:11.202Z,3.50
2018-06-20T08:12:44.901Z,3.10
2018-06-20T08:15:15.225Z,3.25
2018-06-20T08:17:48.913Z,3.60
2018-06-20T08:20:20.130Z,3.20
2018-06-20T08:22:48.301Z,3.50
2018-06-20T08:25:16.453Z,3.80
2018-06-20T08:27:44.633Z,3.27
2018-06-20T08:30:12.796Z,3.37
2018-06-20T08:32:40.997Z,3.03
2018-06-20T08:35:09.185Z,3.47
2018-06-20T08:37:37.398Z,2.70
2018-06-20T08:40:05.570Z,2.90
2018-06-20T08:42:33.750Z,2.98
2018-06-20T08:45:01.926Z,3.10
2018-06-20T08:47:30.102Z,2.90
2018-06-20T08:49:58.265Z,2.40
2018-06-20T08:52:26.445Z,2.50
2018-06-20T08:54:54.614Z,2.70
2018-06-20T08:57:22.777Z,2.70
2018-06-20T08:59:50.941Z,2.50
2018-06-20T09:02:20.120Z,2.40
2018-06-20T09:04:53.732Z,2.70
2018-06-20T09:07:27.384Z,2.80
2018-06-20T09:10:00.905Z,3.35
2018-06-20T09:12:34.400Z,2.58
2018-06-20T09:15:07.929Z,2.80
2018-06-20T09:17:41.622Z,2.70
2018-06-20T09:20:09.799Z,2.30
2018-06-20T09:22:37.989Z,2.40
2018-06-20T09:25:06.158Z,2.15
2018-06-20T09:27:34.325Z,2.10
2018-06-20T09:30:02.565Z,2.70
2018-06-20T09:32:30.670Z,2.70
2018-06-20T09:34:58.858Z,2.60
2018-06-20T09:37:27.017Z,2.20
2018-06-20T11:37:49.724Z,1.83
2018-06-20T11:40:18.053Z,1.73
2018-06-20T11:42:46.209Z,1.87
2018-06-20T11:45:14.413Z,1.77
2018-06-20T11:47:43.637Z,2.00
2018-06-20T11:50:13.070Z,1.63
2018-06-20T11:52:46.615Z,2.63
2018-06-20T11:55:50.549Z,1.80
2018-06-20T11:58:24.201Z,1.70
2018-06-20T12:00:57.885Z,1.53
2018-06-20T12:03:31.391Z,1.70
2018-06-20T12:06:04.930Z,1.70
2018-06-20T12:08:38.403Z,2.00
2018-06-20T12:11:11.942Z,1.60
2018-06-20T12:13:45.611Z,1.80
2018-06-20T12:16:19.353Z,2.03
2018-06-20T12:18:52.781Z,2.00
2018-06-20T12:21:26.378Z,1.97
2018-06-20T12:23:59.898Z,1.83
2018-06-20T12:26:33.570Z,1.93
2018-06-20T12:29:07.150Z,1.80
2018-06-20T12:31:40.752Z,2.20
2018-06-20T12:34:14.390Z,2.03
2018-06-20T12:36:47.910Z,1.90
2018-06-20T12:39:15.350Z,1.80
2018-06-20T12:41:48.917Z,1.97
2018-06-20T12:44:22.482Z,1.90
2018-06-20T12:46:59.965Z,2.00
2018-06-20T12:49:35.238Z,2.10
2018-06-20T12:52:03.387Z,1.97
2018-06-20T12:54:31.649Z,2.13
2018-06-20T12:56:59.805Z,2.07
2018-06-20T12:59:27.965Z,2.00
2018-06-20T13:01:56.129Z,2.00
2018-06-20T13:04:24.297Z,1.83
2018-06-20T13:06:52.453Z,2.10
2018-06-20T13:09:20.638Z,2.13
2018-06-20T13:11:48.802Z,2.13
2018-06-20T13:14:16.957Z,2.17
2018-06-20T13:16:45.124Z,1.70
2018-06-20T13:19:13.282Z,1.77
2018-06-20T13:21:41.442Z,1.80
2018-06-20T13:24:09.594Z,2.00
2018-06-20T13:26:38.669Z,2.20
2018-06-20T13:29:06.858Z,1.83
2018-06-20T13:32:40.285Z,2.00
2018-06-20T13:35:13.877Z,1.60
2018-06-20T13:37:47.591Z,2.40
2018-06-20T13:40:21.303Z,1.83
2018-06-20T13:42:54.752Z,1.73
2018-06-20T13:45:28.222Z,1.80
2018-06-20T13:48:01.885Z,2.08
2018-06-20T13:50:30.052Z,1.90
2018-06-20T13:52:58.212Z,1.83
2018-06-20T13:55:26.382Z,2.13
2018-06-20T13:57:54.570Z,2.50
2018-06-20T14:00:22.726Z,1.87
2018-06-20T14:02:50.894Z,1.80
2018-06-20T14:05:19.077Z,2.13
2018-06-20T14:07:47.234Z,2.10
2018-06-20T14:10:15.386Z,2.07
2018-06-20T14:12:43.554Z,2.17
2018-06-20T14:15:11.706Z,2.20
2018-06-20T14:17:39.869Z,2.43
2018-06-20T14:20:13.390Z,2.10
2018-06-20T14:22:41.647Z,1.80
2018-06-20T14:25:09.798Z,1.60
2018-06-20T14:27:37.962Z,2.30
2018-06-20T14:30:06.114Z,1.90
2018-06-20T14:32:39.643Z,1.90
2018-06-20T14:35:13.177Z,1.63
2018-06-20T14:37:46.725Z,2.23
2018-06-20T14:40:20.293Z,2.07
2018-06-20T14:42:53.952Z,1.60
2018-06-20T14:45:27.349Z,2.07
2018-06-20T14:47:55.510Z,1.63
2018-06-20T14:50:23.718Z,1.80
2018-06-20T14:52:51.830Z,1.93
2018-06-20T14:55:20.020Z,1.77
2018-06-20T14:57:48.176Z,2.27
2018-06-20T15:00:16.332Z,1.90
2018-06-20T15:02:44.509Z,2.20
2018-06-20T15:05:12.671Z,2.17
2018-06-20T15:07:40.829Z,2.40
2018-06-20T15:10:09.025Z,2.00
2018-06-20T15:12:37.814Z,2.20
2018-06-20T15:15:06.025Z,2.17
2018-06-20T15:17:34.157Z,1.80
2018-06-20T15:20:02.331Z,1.93
2018-06-20T15:22:36.023Z,2.00
2018-06-20T15:25:03.985Z,1.93
2018-06-20T15:28:40.230Z,1.90
2018-06-20T15:31:13.821Z,2.70
2018-06-20T15:33:47.530Z,1.60
2018-06-20T15:36:21.138Z,2.07
2018-06-20T15:38:49.324Z,1.80
2018-06-20T15:41:17.482Z,1.80
2018-06-20T15:43:45.655Z,2.27
2018-06-20T15:46:13.818Z,1.70
2018-06-20T15:48:41.997Z,2.20
2018-06-20T15:51:10.283Z,1.80
2018-06-20T15:53:38.409Z,2.07
2018-06-20T15:56:06.618Z,2.10
2018-06-20T15:58:34.778Z,2.10
2018-06-20T16:01:02.949Z,2.30
2018-06-20T16:03:31.106Z,2.37
2018-06-20T16:05:59.265Z,2.10
2018-06-20T16:08:27.434Z,1.90
2018-06-20T16:10:55.606Z,2.03
2018-06-20T17:47:42.333Z,2.53
2018-06-20T17:50:10.507Z,2.17
2018-06-20T17:52:38.685Z,2.60
2018-06-20T17:55:06.913Z,2.40
2018-06-20T17:57:35.091Z,2.30
2018-06-20T18:00:03.253Z,2.07
2018-06-20T18:02:31.432Z,2.23
2018-06-20T18:05:04.866Z,1.57
2018-06-20T18:07:38.337Z,2.00
2018-06-20T18:10:11.722Z,2.50
2018-06-20T18:12:45.451Z,2.33
2018-06-20T23:30:48.242Z,4.12
2018-06-20T23:33:16.417Z,4.65
2018-06-20T23:35:44.635Z,4.17
2018-06-20T23:38:12.806Z,4.50
2018-06-20T23:40:40.994Z,4.00
2018-06-20T23:43:09.186Z,4.20
2018-06-20T23:45:37.353Z,4.08
2018-06-20T23:48:05.556Z,4.43
2018-06-20T23:55:28.685Z,4.05
2018-06-20T23:57:56.854Z,4.27
